Time;durP1;ratioP1;P1;durP2;ratioP2;P2;SDS_P1;SDS_P2;PMS_P1;PMS_P2;Temp;Humidity;BMP_temperature;BMP_pressure;BME280_temperature;BME280_humidity;BME280_pressure;Samples;Min_cycle;Max_cycle;Signal;HPM_P1;HPM_P2
2022/08/29 00:00:48;;;;;;;4.90;2.90;;;13.60;99.90;;;;;;5080484;28;20865;-48
2022/08/29 00:03:16;;;;;;;4.40;3.07;;;13.60;1.00;;;;;;5092178;28;20484;-53
2022/08/29 00:05:44;;;;;;;5.77;3.23;;;13.60;1.00;;;;;;5100487;28;20495;-50
2022/08/29 00:08:11;;;;;;;6.00;3.33;;;13.60;1.00;;;;;;5100139;28;20517;-49
2022/08/29 00:10:39;;;;;;;5.47;2.90;;;13.60;1.00;;;;;;5100388;28;20484;-50
2022/08/29 00:13:09;;;;;;;4.17;2.77;;;13.60;99.90;;;;;;5099495;28;20796;-48
2022/08/29 00:15:37;;;;;;;6.00;3.50;;;13.60;1.00;;;;;;5099549;28;20788;-48
2022/08/29 00:18:06;;;;;;;4.53;3.57;;;13.60;1.00;;;;;;5100340;28;20460;-52
2022/08/29 00:20:34;;;;;;;3.90;3.23;;;13.60;1.00;;;;;;5100310;28;20431;-50
2022/08/29 00:23:04;;;;;;;5.10;2.93;;;13.50;1.00;;;;;;5099892;28;20528;-52
2022/08/29 00:25:36;;;;;;;6.23;3.37;;;13.50;1.00;;;;;;5099993;28;20968;-53
2022/08/29 00:28:04;;;;;;;5.90;3.50;;;13.50;1.00;;;;;;5099635;28;20506;-51
2022/08/29 00:30:34;;;;;;;7.43;4.27;;;13.40;1.00;;;;;;5099648;28;20466;-48
2022/08/29 00:33:03;;;;;;;4.90;3.53;;;13.30;1.00;;;;;;5099850;28;20885;-51
2022/08/29 00:35:33;;;;;;;5.83;3.77;;;13.20;1.00;;;;;;5098970;28;20439;-48
2022/08/29 00:38:01;;;;;;;8.00;3.63;;;13.10;1.00;;;;;;5099136;28;20888;-48
2022/08/29 00:40:35;;;;;;;8.93;3.90;;;13.10;1.00;;;;;;5100290;28;20471;-53
2022/08/29 00:43:02;;;;;;;4.20;3.30;;;13.00;1.00;;;;;;5099164;28;20467;-50
2022/08/29 00:45:31;;;;;;;5.87;3.40;;;13.00;1.00;;;;;;5099815;28;20507;-53
2022/08/29 00:48:05;;;;;;;5.73;3.10;;;13.00;1.00;;;;;;5099361;28;20509;-52
2022/08/29 00:50:36;;;;;;;5.03;4.30;;;13.00;1.00;;;;;;5099586;28;20784;-50
2022/08/29 00:53:06;;;;;;;5.03;3.40;;;13.00;1.00;;;;;;5099278;28;20804;-50
2022/08/29 00:55:36;;;;;;;4.57;3.60;;;13.10;1.00;;;;;;5098892;28;20905;-52
2022/08/29 00:58:10;;;;;;;4.60;4.03;;;13.10;1.00;;;;;;5098074;28;20894;-50
2022/08/29 01:00:39;;;;;;;9.17;3.40;;;13.00;1.00;;;;;;5099615;28;20496;-54
2022/08/29 01:03:08;;;;;;;5.57;3.43;;;12.80;1.00;;;;;;5098351;28;20510;-53
2022/08/29 01:05:36;;;;;;;6.47;3.30;;;12.80;1.00;;;;;;5098746;28;20480;-49
2022/08/29 01:08:04;;;;;;;4.33;3.53;;;12.70;1.00;;;;;;5098513;28;20466;-49
2022/08/29 01:13:17;;;;;;;4.17;3.20;;;12.70;1.00;;;;;;5098544;28;20452;-49
2022/08/29 01:15:47;;;;;;;5.20;3.90;;;12.70;1.00;;;;;;5099426;28;20460;-52
2022/08/29 01:18:19;;;;;;;6.80;3.47;;;12.70;1.00;;;;;;5098859;28;20438;-47
2022/08/29 01:20:56;;;;;;;6.07;4.03;;;12.70;1.00;;;;;;5082695;28;20510;-48
2022/08/29 01:23:31;;;;;;;9.60;3.33;;;12.70;1.00;;;;;;5098681;28;20539;-50
2022/08/29 01:26:02;;;;;;;10.63;4.47;;;12.60;1.00;;;;;;5099014;28;20927;-48
2022/08/29 01:28:33;;;;;;;5.53;3.90;;;12.60;1.00;;;;;;5098604;28;20435;-47
2022/08/29 01:31:02;;;;;;;5.93;4.00;;;12.50;1.00;;;;;;5098502;28;20912;-51
2022/08/29 01:33:37;;;;;;;4.83;4.30;;;12.50;1.00;;;;;;5098848;28;20496;-47
2022/08/29 01:36:05;;;;;;;5.30;4.80;;;12.50;1.00;;;;;;5098740;28;20567;-50
2022/08/29 01:38:32;;;;;;;4.90;3.10;;;12.40;1.00;;;;;;5098807;28;20798;-47
2022/08/29 01:41:06;;;;;;;7.00;3.80;;;12.40;1.00;;;;;;5097437;28;20441;-47
2022/08/29 01:43:40;;;;;;;7.40;3.97;;;12.40;1.00;;;;;;5097547;28;20433;-48
2022/08/29 01:46:10;;;;;;;5.00;3.30;;;12.30;1.00;;;;;;5097868;28;20900;-50
2022/08/29 01:48:40;;;;;;;4.37;3.53;;;12.20;1.00;;;;;;5098549;28;20523;-49
2022/08/29 01:51:07;;;;;;;4.00;3.40;;;12.10;1.00;;;;;;5098311;28;20494;-48
2022/08/29 01:53:35;;;;;;;4.67;3.50;;;12.20;1.00;;;;;;5097429;28;20818;-48
2022/08/29 01:56:12;;;;;;;4.70;3.20;;;12.10;1.00;;;;;;5098447;28;20599;-49
2022/08/29 01:58:42;;;;;;;7.77;3.97;;;12.10;1.00;;;;;;5098415;28;20435;-48
2022/08/29 02:01:10;;;;;;;5.20;4.27;;;12.10;1.00;;;;;;5098129;28;20514;-48
2022/08/29 02:03:39;;;;;;;4.87;3.60;;;12.00;1.00;;;;;;5098406;28;20755;-53
2022/08/29 02:06:08;;;;;;;9.93;4.07;;;12.00;1.00;;;;;;5097575;28;20467;-54
2022/08/29 02:08:36;;;;;;;6.83;3.70;;;11.90;1.00;;;;;;5098167;28;20776;-51
2022/08/29 02:11:09;;;;;;;6.07;3.47;;;11.90;1.00;;;;;;5096632;28;20514;-51
2022/08/29 02:13:38;;;;;;;3.73;3.37;;;11.90;1.00;;;;;;5098143;28;20555;-53
2022/08/29 02:16:06;;;;;;;5.60;3.70;;;11.90;1.00;;;;;;5097628;28;20901;-53
2022/08/29 02:18:33;;;;;;;4.73;3.47;;;11.90;1.00;;;;;;5097669;28;20822;-50
2022/08/29 02:21:02;;;;;;;5.03;3.60;;;11.90;1.00;;;;;;5097529;28;20503;-50
2022/08/29 02:23:29;;;;;;;6.10;4.40;;;11.80;1.00;;;;;;5098062;28;20460;-49
2022/08/29 02:25:57;;;;;;;5.53;3.57;;;11.80;1.00;;;;;;5097065;28;20460;-53
2022/08/29 02:28:27;;;;;;;6.13;4.03;;;11.70;1.00;;;;;;5097968;28;20864;-51
2022/08/29 02:30:56;;;;;;;5.47;3.87;;;11.70;1.00;;;;;;5097209;28;20534;-50
2022/08/29 02:33:23;;;;;;;5.83;3.90;;;11.60;68.30;;;;;;5097613;28;20905;-49
2022/08/29 02:35:53;;;;;;;6.00;4.00;;;11.60;89.20;;;;;;5097591;28;20501;-50
2022/08/29 02:38:21;;;;;;;6.93;3.60;;;11.50;99.90;;;;;;5097780;28;20492;-49
2022/08/29 02:40:49;;;;;;;6.53;4.13;;;11.50;99.90;;;;;;5097038;28;20456;-50
2022/08/29 02:43:18;;;;;;;4.17;3.50;;;11.50;99.90;;;;;;5097175;28;20554;-47
2022/08/29 02:45:46;;;;;;;6.40;3.73;;;11.50;99.90;;;;;;5097329;28;20436;-49
2022/08/29 02:48:16;;;;;;;5.70;3.50;;;11.50;85.70;;;;;;5097525;28;20510;-50
2022/08/29 02:50:47;;;;;;;6.00;3.10;;;11.50;99.90;;;;;;5096719;28;20452;-46
2022/08/29 02:53:16;;;;;;;4.67;3.50;;;11.40;99.90;;;;;;5097263;28;20503;-49
2022/08/29 02:55:44;;;;;;;4.37;3.00;;;11.30;99.90;;;;;;5096726;28;20439;-49
2022/08/29 02:58:12;;;;;;;4.87;3.70;;;11.30;99.90;;;;;;5097188;28;20531;-47
2022/08/29 03:00:40;;;;;;;6.07;3.70;;;11.30;99.90;;;;;;5096577;28;20452;-47
2022/08/29 03:03:08;;;;;;;6.70;4.00;;;11.40;99.90;;;;;;5097074;28;20435;-53
2022/08/29 03:05:37;;;;;;;7.83;3.40;;;11.30;99.90;;;;;;5097230;28;20939;-54
2022/08/29 03:08:07;;;;;;;4.43;3.40;;;11.30;99.90;;;;;;5097235;28;20461;-52
2022/08/29 03:10:41;;;;;;;5.50;3.87;;;11.40;99.90;;;;;;5096762;28;20439;-55
2022/08/29 03:13:08;;;;;;;6.40;3.47;;;11.40;99.90;;;;;;5097013;28;20466;-49
2022/08/29 03:15:39;;;;;;;4.40;3.73;;;11.40;99.90;;;;;;5097091;28;20492;-55
2022/08/29 03:18:07;;;;;;;7.37;4.70;;;11.40;99.90;;;;;;5097420;28;20460;-54
2022/08/29 03:20:40;;;;;;;5.93;4.60;;;11.40;99.90;;;;;;5097387;28;20510;-53
2022/08/29 03:23:08;;;;;;;6.23;3.77;;;11.30;99.90;;;;;;5096570;28;20515;-53
2022/08/29 03:25:36;;;;;;;6.03;4.20;;;11.30;99.90;;;;;;5096722;28;20468;-49
2022/08/29 03:28:04;;;;;;;4.77;3.00;;;11.30;99.90;;;;;;5097349;28;20435;-50
2022/08/29 03:30:31;;;;;;;5.47;3.50;;;11.30;99.90;;;;;;5097184;28;20527;-50
2022/08/29 03:32:59;;;;;;;6.80;3.70;;;11.20;99.90;;;;;;5095317;28;20546;-47
2022/08/29 03:35:26;;;;;;;8.10;3.73;;;11.20;99.90;;;;;;5096681;28;20554;-50
2022/08/29 03:37:56;;;;;;;7.13;3.57;;;11.20;99.90;;;;;;5096396;28;20913;-50
2022/08/29 03:40:24;;;;;;;6.20;3.53;;;11.20;99.90;;;;;;5090651;28;20451;-49
2022/08/29 03:42:52;;;;;;;5.40;3.80;;;11.20;99.90;;;;;;5094034;28;20472;-53
2022/08/29 03:45:21;;;;;;;5.43;3.50;;;11.10;99.90;;;;;;5092739;28;20538;-49
2022/08/29 03:47:49;;;;;;;6.40;3.73;;;11.00;99.90;;;;;;5095382;28;20464;-50
2022/08/29 03:50:18;;;;;;;5.83;3.20;;;11.00;99.90;;;;;;5089560;28;20472;-52
2022/08/29 03:52:47;;;;;;;5.53;4.77;;;11.00;1.00;;;;;;5094830;28;20458;-50
2022/08/29 03:55:16;;;;;;;7.20;4.00;;;11.00;1.00;;;;;;5085145;28;20513;-49
2022/08/29 03:57:46;;;;;;;7.03;4.00;;;11.00;99.90;;;;;;5092090;28;20443;-49
2022/08/29 04:00:20;;;;;;;5.40;3.40;;;11.00;99.90;;;;;;5090919;28;20883;-54
2022/08/29 04:02:49;;;;;;;5.27;3.40;;;11.00;99.90;;;;;;5094874;28;20457;-53
2022/08/29 04:05:18;;;;;;;5.20;3.90;;;11.00;99.90;;;;;;5083550;28;20470;-51
2022/08/29 04:07:49;;;;;;;4.70;3.60;;;11.00;99.90;;;;;;5087717;28;20512;-51
2022/08/29 04:10:20;;;;;;;4.87;4.00;;;11.00;99.90;;;;;;5092955;28;20860;-52
2022/08/29 04:12:47;;;;;;;7.57;4.43;;;11.00;99.90;;;;;;5094668;28;20944;-52
2022/08/29 04:15:15;;;;;;;6.53;4.43;;;11.10;99.90;;;;;;5096117;28;20867;-51
2022/08/29 04:17:42;;;;;;;7.23;3.73;;;11.00;99.90;;;;;;5093457;28;20487;-51
2022/08/29 04:20:13;;;;;;;5.17;4.50;;;11.00;99.90;;;;;;5091637;28;20474;-54
2022/08/29 04:22:41;;;;;;;8.47;3.60;;;11.00;99.90;;;;;;5084793;28;20501;-56
2022/08/29 04:25:14;;;;;;;9.10;4.07;;;10.90;99.90;;;;;;5094497;28;20479;-55
2022/08/29 04:27:43;;;;;;;8.57;4.50;;;11.00;99.90;;;;;;5099685;28;20518;-52
2022/08/29 04:30:15;;;;;;;7.90;4.43;;;11.10;99.90;;;;;;5100196;28;20443;-53
2022/08/29 04:32:42;;;;;;;5.80;3.83;;;11.10;99.90;;;;;;5099916;28;20552;-51
2022/08/29 04:35:12;;;;;;;8.13;3.70;;;11.10;99.90;;;;;;5099265;28;20798;-51
2022/08/29 04:37:40;;;;;;;6.10;4.40;;;11.10;99.90;;;;;;5098275;28;20454;-48
2022/08/29 04:40:12;;;;;;;11.00;3.90;;;11.10;99.90;;;;;;5098195;28;20531;-52
2022/08/29 04:42:41;;;;;;;7.60;3.93;;;11.10;99.90;;;;;;5096186;28;20461;-49
2022/08/29 04:45:13;;;;;;;6.40;3.90;;;11.10;99.90;;;;;;5098078;28;20456;-49
2022/08/29 04:47:41;;;;;;;9.20;4.10;;;11.10;99.90;;;;;;5096412;28;20468;-48
2022/08/29 04:50:14;;;;;;;7.03;4.40;;;11.10;99.90;;;;;;5097950;28;20464;-54
2022/08/29 04:52:42;;;;;;;13.00;3.73;;;11.10;99.90;;;;;;5096173;28;20458;-50
2022/08/29 04:55:12;;;;;;;7.10;3.53;;;11.20;99.90;;;;;;5097750;28;20432;-49
2022/08/29 04:57:40;;;;;;;6.70;4.47;;;11.10;99.90;;;;;;5097532;28;20457;-48
2022/08/29 05:00:13;;;;;;;5.77;5.07;;;11.20;99.90;;;;;;5096578;28;20522;-48
2022/08/29 05:02:43;;;;;;;10.50;4.10;;;11.30;99.90;;;;;;5096133;28;21104;-51
2022/08/29 05:05:12;;;;;;;7.30;4.10;;;11.40;99.90;;;;;;5097702;28;20428;-49
2022/08/29 05:07:46;;;;;;;8.53;4.43;;;11.40;99.90;;;;;;5095404;28;20477;-49
2022/08/29 05:10:16;;;;;;;7.07;4.63;;;11.50;99.90;;;;;;5098074;28;20480;-49
2022/08/29 05:12:44;;;;;;;10.03;5.10;;;11.50;99.90;;;;;;5097633;28;20532;-52
2022/08/29 05:15:17;;;;;;;6.63;4.10;;;11.60;99.90;;;;;;5098098;28;20449;-50
2022/08/29 05:17:47;;;;;;;10.23;5.00;;;11.70;99.90;;;;;;5094505;28;20476;-52
2022/08/29 05:20:16;;;;;;;8.87;4.90;;;11.70;99.90;;;;;;5096033;28;20892;-49
2022/08/29 05:22:44;;;;;;;7.07;4.93;;;11.70;99.90;;;;;;5095495;28;20443;-50
2022/08/29 05:25:14;;;;;;;10.97;5.03;;;11.70;99.90;;;;;;5096787;28;20431;-51
2022/08/29 05:27:42;;;;;;;21.47;6.97;;;11.80;99.90;;;;;;5097058;28;20751;-49
2022/08/29 05:30:10;;;;;;;14.67;6.80;;;11.90;99.90;;;;;;5097348;28;20522;-56
2022/08/29 05:32:40;;;;;;;15.67;5.53;;;11.90;99.90;;;;;;5097248;28;20853;-52
2022/08/29 05:35:09;;;;;;;14.60;6.27;;;12.00;99.90;;;;;;5097677;28;20426;-55
2022/08/29 05:37:39;;;;;;;10.60;5.83;;;12.10;99.90;;;;;;5097603;28;20973;-50
2022/08/29 05:40:07;;;;;;;11.00;5.60;;;12.20;99.90;;;;;;5083782;28;20822;-54
2022/08/29 05:42:34;;;;;;;8.23;4.80;;;12.20;99.90;;;;;;5096768;28;20918;-55
2022/08/29 05:45:03;;;;;;;9.47;4.93;;;12.30;99.90;;;;;;5096721;28;21153;-52
2022/08/29 05:47:31;;;;;;;9.17;4.90;;;12.40;99.90;;;;;;5097459;28;20471;-50
2022/08/29 05:50:03;;;;;;;8.13;5.20;;;12.50;90.40;;;;;;5096449;28;20523;-53
2022/08/29 05:52:34;;;;;;;7.73;4.33;;;12.50;76.60;;;;;;5098076;28;20488;-51
2022/08/29 05:55:02;;;;;;;8.03;5.23;;;12.60;45.50;;;;;;5098350;28;20467;-49
2022/08/29 05:57:29;;;;;;;9.13;4.80;;;12.70;35.80;;;;;;5097821;28;20518;-52
2022/08/29 05:59:57;;;;;;;11.20;4.57;;;12.80;36.30;;;;;;5097128;28;20918;-50
2022/08/29 06:02:25;;;;;;;14.60;5.57;;;12.90;1.00;;;;;;5098766;28;20463;-49
2022/08/29 06:04:52;;;;;;;11.27;5.90;;;13.00;1.00;;;;;;5097911;28;20484;-52
2022/08/29 06:07:21;;;;;;;13.00;6.87;;;13.10;1.00;;;;;;5098188;28;20517;-56
2022/08/29 06:09:55;;;;;;;12.33;6.50;;;13.10;1.00;;;;;;5097522;28;20457;-52
2022/08/29 06:12:24;;;;;;;20.93;7.77;;;13.20;1.00;;;;;;5098287;28;20469;-56
2022/08/29 06:14:52;;;;;;;9.27;5.20;;;13.30;1.00;;;;;;5098267;28;20773;-54
2022/08/29 06:17:19;;;;;;;15.00;7.07;;;13.50;1.00;;;;;;5097736;28;20460;-52
2022/08/29 06:19:51;;;;;;;10.27;5.97;;;13.60;1.00;;;;;;5090280;28;20469;-49
2022/08/29 06:22:21;;;;;;;10.20;6.33;;;13.80;1.00;;;;;;5096273;28;20488;-51
2022/08/29 06:24:54;;;;;;;13.97;6.40;;;14.00;1.00;;;;;;5097211;28;20464;-51
2022/08/29 06:27:25;;;;;;;10.17;5.70;;;14.20;1.00;;;;;;5097033;28;20500;-49
2022/08/29 06:29:52;;;;;;;16.93;6.30;;;14.50;1.00;;;;;;5097722;28;20923;-54
2022/08/29 06:32:19;;;;;;;11.90;6.60;;;14.70;1.00;;;;;;5096983;28;20555;-55
2022/08/29 06:34:47;;;;;;;7.73;5.20;;;15.00;1.00;;;;;;5097277;28;20464;-50
2022/08/29 06:37:18;;;;;;;13.10;5.70;;;15.30;1.00;;;;;;5096632;28;20467;-51
2022/08/29 06:39:47;;;;;;;13.13;5.63;;;15.60;1.00;;;;;;5097408;28;20471;-50
2022/08/29 06:42:23;;;;;;;8.30;4.67;;;15.90;1.00;;;;;;5094011;28;20767;-52
2022/08/29 06:44:56;;;;;;;7.97;5.10;;;16.00;1.00;;;;;;5097120;28;20498;-52
2022/08/29 06:47:24;;;;;;;12.80;4.90;;;16.30;1.00;;;;;;5097503;28;20878;-53
2022/08/29 06:49:51;;;;;;;7.27;4.77;;;16.50;99.90;;;;;;5097373;28;20499;-55
2022/08/29 06:52:19;;;;;;;6.90;4.70;;;16.40;99.90;;;;;;5096431;28;20500;-49
2022/08/29 06:54:47;;;;;;;9.97;5.73;;;16.50;99.90;;;;;;5097131;28;20902;-50
2022/08/29 06:57:15;;;;;;;12.40;5.23;;;16.50;99.90;;;;;;5096523;28;20555;-49
2022/08/29 06:59:42;;;;;;;13.70;5.23;;;16.50;99.90;;;;;;5097194;28;20496;-53
2022/08/29 07:02:15;;;;;;;9.77;5.10;;;16.30;99.90;;;;;;5096649;28;20488;-52
2022/08/29 07:04:45;;;;;;;14.90;5.57;;;16.40;1.00;;;;;;5097716;28;20815;-51
2022/08/29 07:07:14;;;;;;;7.93;4.40;;;16.50;99.90;;;;;;5096440;28;20469;-54
2022/08/29 07:09:42;;;;;;;11.00;4.27;;;16.80;99.90;;;;;;5097527;28;20775;-52
2022/08/29 07:12:12;;;;;;;7.23;4.53;;;16.90;99.90;;;;;;5095934;28;20504;-52
2022/08/29 07:14:40;;;;;;;7.10;4.70;;;17.10;99.90;;;;;;5096691;28;20571;-51
2022/08/29 07:17:10;;;;;;;5.60;3.43;;;17.20;99.90;;;;;;5096190;28;20467;-52
2022/08/29 07:19:38;;;;;;;6.27;3.80;;;17.40;99.90;;;;;;5096923;28;20764;-51
2022/08/29 07:22:06;;;;;;;6.17;4.13;;;17.70;99.90;;;;;;5096363;28;20502;-51
2022/08/29 07:24:35;;;;;;;6.50;3.73;;;17.90;99.90;;;;;;5096426;28;20442;-50
2022/08/29 07:27:02;;;;;;;8.77;4.00;;;18.10;99.90;;;;;;5096509;28;20517;-53
2022/08/29 07:29:39;;;;;;;5.83;4.03;;;18.20;99.90;;;;;;5097001;28;20772;-52
2022/08/29 07:32:07;;;;;;;9.63;4.33;;;18.40;99.90;;;;;;5092607;28;20814;-55
2022/08/29 07:34:35;;;;;;;5.73;3.97;;;18.80;99.90;;;;;;5083725;28;20488;-54
2022/08/29 07:37:03;;;;;;;4.80;4.23;;;19.10;99.90;;;;;;5087300;28;20472;-49
2022/08/29 07:39:33;;;;;;;8.13;3.93;;;18.90;99.90;;;;;;5094466;28;20782;-53
2022/08/29 07:42:02;;;;;;;5.00;4.27;;;18.80;99.90;;;;;;5095682;28;20442;-53
2022/08/29 07:44:32;;;;;;;5.37;3.90;;;18.90;99.90;;;;;;5089437;28;20560;-51
2022/08/29 07:47:00;;;;;;;5.07;4.37;;;19.00;99.90;;;;;;5098404;28;20472;-51
2022/08/29 07:49:29;;;;;;;5.80;3.93;;;18.80;99.90;;;;;;5096998;28;20479;-56
2022/08/29 07:51:58;;;;;;;8.10;4.07;;;19.00;99.90;;;;;;5099970;28;20562;-53
2022/08/29 07:54:27;;;;;;;6.17;3.80;;;19.30;99.90;;;;;;5099046;28;20459;-52
2022/08/29 07:56:58;;;;;;;6.40;4.07;;;19.70;99.90;;;;;;5095555;28;20999;-50
2022/08/29 07:59:28;;;;;;;8.83;4.17;;;19.70;99.90;;;;;;5090661;28;20893;-51
2022/08/29 08:01:56;;;;;;;4.80;3.70;;;19.60;99.90;;;;;;5085638;28;20476;-59
2022/08/29 08:04:27;;;;;;;8.17;4.63;;;19.90;99.90;;;;;;5080524;28;20432;-59
2022/08/29 08:06:55;;;;;;;7.40;3.97;;;20.20;99.90;;;;;;5098108;28;20435;-59
2022/08/29 08:09:25;;;;;;;7.33;4.10;;;20.60;99.90;;;;;;5100346;28;20525;-54
2022/08/29 08:12:00;;;;;;;5.10;3.60;;;20.50;99.90;;;;;;5099304;28;20461;-58
2022/08/29 08:14:27;;;;;;;4.73;3.43;;;20.70;99.90;;;;;;5100219;28;20487;-59
2022/08/29 08:16:58;;;;;;;5.70;3.50;;;20.50;99.90;;;;;;5100347;28;20495;-52
2022/08/29 08:19:26;;;;;;;4.27;3.60;;;20.00;99.90;;;;;;5098824;28;20464;-55
2022/08/29 08:21:58;;;;;;;4.23;3.47;;;20.20;99.90;;;;;;5098733;28;20562;-58
2022/08/29 08:24:25;;;;;;;5.70;3.93;;;20.50;99.90;;;;;;5100111;28;20496;-59
2022/08/29 08:26:56;;;;;;;5.43;3.63;;;20.40;99.90;;;;;;5099461;28;20789;-57
2022/08/29 08:29:24;;;;;;;9.30;3.93;;;20.60;99.90;;;;;;5098602;28;20917;-59
2022/08/29 08:31:54;;;;;;;4.40;3.70;;;20.90;99.90;;;;;;5099496;28;20554;-59
2022/08/29 08:34:24;;;;;;;6.50;4.00;;;21.00;99.90;;;;;;5099319;28;20492;-59
2022/08/29 08:36:52;;;;;;;6.03;3.40;;;20.40;99.90;;;;;;5100272;28;20811;-55
2022/08/29 08:39:19;;;;;;;5.30;3.67;;;19.50;99.90;;;;;;5099816;28;20464;-58
2022/08/29 08:41:55;;;;;;;4.73;3.53;;;19.40;99.90;;;;;;5099136;28;20909;-55
2022/08/29 08:44:59;;;;;;;3.97;3.47;;;19.40;99.90;;;;;;5099864;28;20459;-58
2022/08/29 08:47:30;;;;;;;5.63;3.80;;;19.70;99.90;;;;;;5099272;28;20461;-58
2022/08/29 08:50:05;;;;;;;6.73;4.50;;;20.40;99.90;;;;;;5099682;28;20496;-57
2022/08/29 08:52:42;;;;;;;6.03;3.30;;;20.70;99.90;;;;;;5099165;28;20460;-59
2022/08/29 08:55:17;;;;;;;5.13;4.23;;;21.50;99.90;;;;;;5099068;28;20540;-59
2022/08/29 08:57:52;;;;;;;4.97;3.57;;;21.90;99.90;;;;;;5093357;28;20755;-54
2022/08/29 09:00:20;;;;;;;4.53;3.30;;;21.90;99.90;;;;;;5087092;28;20509;-54
2022/08/29 09:03:04;;;;;;;5.27;3.50;;;22.60;99.90;;;;;;5095303;28;20487;-59
2022/08/29 09:05:42;;;;;;;6.23;3.50;;;23.50;99.90;;;;;;5099118;28;20460;-59
2022/08/29 09:08:22;;;;;;;5.87;3.83;;;23.20;99.90;;;;;;5099509;28;20543;-55
2022/08/29 09:10:59;;;;;;;5.30;3.20;;;22.90;99.90;;;;;;5099754;28;20757;-59
2022/08/29 09:13:37;;;;;;;5.17;3.37;;;22.90;99.90;;;;;;5098219;28;20488;-57
2022/08/29 09:16:19;;;;;;;6.40;3.47;;;23.10;99.90;;;;;;5099241;28;20514;-56
2022/08/29 09:18:49;;;;;;;5.53;3.53;;;23.00;99.90;;;;;;5098671;28;20461;-55
2022/08/29 09:21:21;;;;;;;4.50;3.67;;;22.90;99.90;;;;;;5098209;28;20492;-59
2022/08/29 09:23:50;;;;;;;9.17;3.27;;;23.20;99.90;;;;;;5088824;28;20751;-58
2022/08/29 09:26:20;;;;;;;3.43;3.13;;;23.60;99.90;;;;;;5087347;28;20496;-59
2022/08/29 09:28:48;;;;;;;5.87;4.03;;;23.20;99.90;;;;;;5098432;28;20845;-59
2022/08/29 09:31:24;;;;;;;6.10;4.27;;;22.80;99.90;;;;;;5098477;28;20522;-58
2022/08/29 09:33:57;;;;;;;6.13;3.73;;;22.40;99.90;;;;;;5097902;28;20488;-56
2022/08/29 09:36:43;;;;;;;5.60;4.47;;;23.20;99.90;;;;;;5079842;28;20480;-58
2022/08/29 09:39:18;;;;;;;4.03;3.70;;;23.20;99.90;;;;;;5086620;28;20554;-57
2022/08/29 09:41:48;;;;;;;5.97;4.33;;;22.80;99.90;;;;;;5094182;28;20476;-59
2022/08/29 09:44:28;;;;;;;8.20;4.53;;;22.80;99.90;;;;;;5083867;28;20805;-58
2022/08/29 09:47:15;;;;;;;6.63;4.30;;;23.00;99.90;;;;;;5096169;28;20470;-59
2022/08/29 09:50:04;;;;;;;5.50;3.90;;;23.00;99.90;;;;;;5097214;28;20438;-54
2022/08/29 09:52:40;;;;;;;6.13;4.00;;;23.80;99.90;;;;;;5098169;28;20452;-57
2022/08/29 09:55:21;;;;;;;3.67;3.20;;;22.60;99.90;;;;;;5097303;28;20542;-58
2022/08/29 09:57:52;;;;;;;4.43;3.33;;;23.90;99.90;;;;;;5097870;28;20461;-57
2022/08/29 10:00:28;;;;;;;7.40;3.93;;;24.70;99.90;;;;;;5098459;28;20888;-56
2022/08/29 10:02:58;;;;;;;4.57;3.70;;;24.30;99.90;;;;;;5097740;28;20460;-58
2022/08/29 10:05:41;;;;;;;5.03;3.33;;;25.00;99.90;;;;;;5096190;28;20427;-57
2022/08/29 10:08:28;;;;;;;7.23;3.90;;;25.60;99.90;;;;;;5096222;28;20503;-56
2022/08/29 10:11:01;;;;;;;6.97;3.80;;;25.40;99.90;;;;;;5094850;28;20496;-58
2022/08/29 10:13:35;;;;;;;6.70;3.60;;;25.90;99.90;;;;;;5096296;28;20464;-54
2022/08/29 10:16:12;;;;;;;6.77;3.33;;;24.10;99.90;;;;;;5096905;28;20499;-58
2022/08/29 10:18:47;;;;;;;4.53;4.10;;;24.30;99.90;;;;;;5098173;28;20464;-59
2022/08/29 10:21:26;;;;;;;6.10;3.93;;;24.40;99.90;;;;;;5096536;28;21031;-58
2022/08/29 10:24:09;;;;;;;4.40;3.37;;;24.40;99.90;;;;;;5097537;28;20502;-54
2022/08/29 10:26:42;;;;;;;5.47;3.40;;;24.00;99.90;;;;;;5096526;28;20479;-59
2022/08/29 10:29:25;;;;;;;5.40;4.03;;;24.30;99.90;;;;;;5097173;28;20461;-58
2022/08/29 10:32:00;;;;;;;5.83;3.43;;;25.60;99.90;;;;;;5097496;28;20482;-57
2022/08/29 10:34:38;;;;;;;5.53;3.60;;;26.20;99.90;;;;;;5097633;28;20492;-58
2022/08/29 10:37:14;;;;;;;3.80;3.40;;;26.40;99.90;;;;;;5097096;28;20837;-60
2022/08/29 10:39:53;;;;;;;4.90;2.90;;;26.80;99.90;;;;;;5097918;28;20529;-54
2022/08/29 10:42:25;;;;;;;6.53;3.60;;;27.20;99.90;;;;;;5095510;28;20902;-51
2022/08/29 10:45:02;;;;;;;6.13;3.63;;;26.90;99.90;;;;;;5081851;28;20775;-55
2022/08/29 10:47:38;;;;;;;4.43;3.60;;;26.30;99.90;;;;;;5091891;28;20829;-55
2022/08/29 10:50:50;;;;;;;4.53;3.97;;;26.90;99.90;;;;;;5085203;28;20550;-52
2022/08/29 10:53:21;;;;;;;5.90;2.93;;;27.10;99.90;;;;;;5086944;28;20468;-52
2022/08/29 10:55:58;;;;;;;5.03;3.47;;;27.00;99.90;;;;;;5106257;28;20526;-58
2022/08/29 10:58:46;;;;;;;4.07;3.60;;;26.30;99.90;;;;;;5100200;28;20465;-51
2022/08/29 11:01:23;;;;;;;5.37;4.30;;;25.30;99.90;;;;;;5090786;28;20496;-51
2022/08/29 11:04:01;;;;;;;4.60;3.63;;;25.00;99.90;;;;;;5094234;28;20503;-51
2022/08/29 11:06:34;;;;;;;8.43;3.57;;;23.60;99.90;;;;;;5095204;28;20447;-52
2022/08/29 11:09:08;;;;;;;4.17;3.77;;;22.70;99.90;;;;;;5083351;28;20795;-50
2022/08/29 11:11:44;;;;;;;5.63;3.50;;;23.10;99.90;;;;;;5089121;28;20475;-50
2022/08/29 11:14:30;;;;;;;4.87;4.00;;;23.50;99.90;;;;;;5095968;28;20578;-50
2022/08/29 11:17:03;;;;;;;4.77;3.33;;;24.60;99.90;;;;;;5093428;28;20476;-51
2022/08/29 11:19:38;;;;;;;4.27;3.80;;;25.40;99.90;;;;;;5091367;28;20443;-54
2022/08/29 11:22:16;;;;;;;7.63;4.60;;;25.80;99.90;;;;;;5089607;28;20597;-58
2022/08/29 11:24:53;;;;;;;5.07;3.73;;;26.10;99.90;;;;;;5095254;28;20480;-55
2022/08/29 11:27:32;;;;;;;4.23;3.33;;;26.30;99.90;;;;;;5097313;28;20484;-52
2022/08/29 11:30:04;;;;;;;5.23;3.93;;;27.40;99.90;;;;;;5099488;28;20475;-56
2022/08/29 11:32:40;;;;;;;7.70;3.23;;;28.00;99.90;;;;;;5100870;28;20822;-56
2022/08/29 11:35:22;;;;;;;6.13;4.13;;;28.50;99.90;;;;;;5100047;28;20569;-56
2022/08/29 11:38:14;;;;;;;5.70;3.70;;;27.70;99.90;;;;;;5100089;28;20434;-56
2022/08/29 11:40:57;;;;;;;3.73;3.20;;;26.60;99.90;;;;;;5079955;28;20767;-57
2022/08/29 11:43:35;;;;;;;4.73;3.30;;;25.00;99.90;;;;;;5080161;28;20965;-51
2022/08/29 11:46:05;;;;;;;4.83;3.20;;;25.40;99.90;;;;;;5089659;28;20573;-52
2022/08/29 11:48:36;;;;;;;4.13;3.73;;;25.90;99.90;;;;;;5097183;28;20778;-51
2022/08/29 11:51:33;;;;;;;8.37;3.90;;;26.60;99.90;;;;;;5093597;28;20435;-57
2022/08/29 11:54:34;;;;;;;4.67;3.67;;;26.70;99.90;;;;;;5098359;28;20456;-54
2022/08/29 11:57:36;;;;;;;5.60;4.63;;;25.70;99.90;;;;;;5097780;28;20452;-54
2022/08/29 12:00:31;;;;;;;5.40;3.87;;;24.90;99.90;;;;;;5097057;28;20875;-51
2022/08/29 12:02:59;;;;;;;6.50;3.50;;;24.10;99.90;;;;;;5098593;28;20483;-57
2022/08/29 12:06:03;;;;;;;4.40;3.60;;;24.80;99.90;;;;;;5097821;28;20509;-53
2022/08/29 12:08:36;;;;;;;3.47;3.13;;;24.80;99.90;;;;;;5043913;28;20456;-48
2022/08/29 12:11:07;;;;;;;4.90;3.70;;;24.90;99.90;;;;;;5095973;28;20482;-53
2022/08/29 12:14:00;;;;;;;5.77;3.87;;;25.20;99.90;;;;;;5099777;28;20523;-53
2022/08/29 12:16:49;;;;;;;5.97;4.10;;;25.90;99.90;;;;;;5096050;28;20929;-56
2022/08/29 12:19:47;;;;;;;5.83;4.73;;;26.90;99.90;;;;;;5097488;28;20517;-55
2022/08/29 12:23:00;;;;;;;5.83;3.97;;;27.00;99.90;;;;;;5053906;28;20487;-57
2022/08/29 12:25:46;;;;;;;5.80;4.80;;;26.80;99.90;;;;;;5053321;28;20469;-56
2022/08/29 12:28:37;;;;;;;6.90;4.47;;;27.40;99.90;;;;;;5096365;28;20463;-53
2022/08/29 12:31:11;;;;;;;4.70;3.50;;;27.70;99.90;;;;;;5098178;28;20540;-55
2022/08/29 12:33:57;;;;;;;4.33;3.90;;;27.60;99.90;;;;;;5099574;28;20435;-51
2022/08/29 12:36:36;;;;;;;4.60;3.53;;;27.60;99.90;;;;;;5098954;28;20525;-57
2022/08/29 12:39:16;;;;;;;7.13;4.70;;;26.30;99.90;;;;;;5097329;28;20466;-57
2022/08/29 12:42:02;;;;;;;5.97;5.07;;;25.30;99.90;;;;;;5099764;28;20513;-56
2022/08/29 12:44:36;;;;;;;6.20;4.67;;;23.90;99.90;;;;;;5098737;28;20457;-56
2022/08/29 12:47:08;;;;;;;4.43;3.70;;;23.40;99.90;;;;;;5097812;28;20554;-49
2022/08/29 12:49:47;;;;;;;4.70;3.80;;;22.70;99.90;;;;;;5097898;28;20434;-55
2022/08/29 12:52:26;;;;;;;5.07;3.70;;;23.10;99.90;;;;;;5099482;28;20968;-53
2022/08/29 12:54:57;;;;;;;7.20;3.37;;;24.60;99.90;;;;;;5099377;28;20981;-56
2022/08/29 12:57:33;;;;;;;5.63;3.63;;;25.90;99.90;;;;;;5099241;28;20486;-56
2022/08/29 13:00:15;;;;;;;3.90;3.50;;;27.00;99.90;;;;;;5098575;28;20496;-56
2022/08/29 13:02:54;;;;;;;5.67;3.90;;;27.10;99.90;;;;;;5098915;28;20439;-54
2022/08/29 13:05:29;;;;;;;4.30;3.90;;;27.50;99.90;;;;;;5099006;28;20506;-56
2022/08/29 13:07:59;;;;;;;4.27;3.53;;;28.20;99.90;;;;;;5099220;28;20467;-56
2022/08/29 13:10:28;;;;;;;6.10;4.17;;;27.60;99.90;;;;;;5101796;28;20909;-56
2022/08/29 13:13:08;;;;;;;4.33;3.87;;;28.30;99.90;;;;;;5098857;28;20456;-54
2022/08/29 13:15:35;;;;;;;5.00;3.43;;;28.80;99.90;;;;;;5102419;28;20573;-57
2022/08/29 13:18:06;;;;;;;4.23;3.83;;;29.10;99.90;;;;;;5119133;28;20555;-52